Time;durP1;ratioP1;P1;durP2;ratioP2;P2;SDS_P1;SDS_P2;PMS_P1;PMS_P2;Temp;Humidity;BMP_temperature;BMP_pressure;BME280_temperature;BME280_humidity;BME280_pressure;Samples;Min_cycle;Max_cycle;Signal;HPM_P1;HPM_P2
2022/01/07 00:01:30;;;;;;;10.88;5.45;;;;;;;;;;5028985;28;20052;-47
2022/01/07 00:03:56;;;;;;;10.20;4.28;;;;;;;;;;5025332;28;20029;-46
2022/01/07 00:06:22;;;;;;;6.30;3.63;;;;;;;;;;5024851;28;20084;-49
2022/01/07 00:08:48;;;;;;;4.10;3.40;;;;;;;;;;5023743;28;20084;-50
2022/01/07 00:11:14;;;;;;;7.82;3.15;;;;;;;;;;5019648;28;20394;-48
2022/01/07 00:13:40;;;;;;;6.53;3.40;;;;;;;;;;5020104;28;20033;-47
2022/01/07 00:16:06;;;;;;;6.50;3.63;;;;;;;;;;5024014;28;20041;-47
2022/01/07 00:18:32;;;;;;;7.85;3.40;;;;;;;;;;5025631;28;20360;-48
2022/01/07 00:20:58;;;;;;;7.20;3.75;;;;;;;;;;5023967;28;20046;-49
2022/01/07 00:23:24;;;;;;;6.45;4.05;;;;;;;;;;5022994;28;20029;-46
2022/01/07 00:25:50;;;;;;;5.82;3.40;;;;;;;;;;5022126;28;20025;-47
2022/01/07 00:28:17;;;;;;;5.88;3.83;;;;;;;;;;5024350;28;20029;-52
2022/01/07 00:30:42;;;;;;;6.07;3.70;;;;;;;;;;5023980;28;20033;-47
2022/01/07 00:33:08;;;;;;;6.88;4.35;;;;;;;;;;5026810;28;20041;-47
2022/01/07 00:35:34;;;;;;;17.15;8.43;;;;;;;;;;5023022;28;20116;-49
2022/01/07 00:38:00;;;;;;;25.67;10.68;;;;;;;;;;5025081;28;20096;-53
2022/01/07 00:40:26;;;;;;;11.63;5.85;;;;;;;;;;5023725;28;20034;-50
2022/01/07 00:42:53;;;;;;;12.57;6.22;;;;;;;;;;5025062;28;20033;-53
2022/01/07 00:45:20;;;;;;;10.07;5.22;;;;;;;;;;5024597;28;20041;-50
2022/01/07 00:47:47;;;;;;;10.57;5.78;;;;;;;;;;5021011;28;20076;-47
2022/01/07 00:50:15;;;;;;;10.63;5.40;;;;;;;;;;5018498;28;20112;-50
2022/01/07 00:52:41;;;;;;;15.23;5.32;;;;;;;;;;5023483;28;20187;-48
2022/01/07 00:55:08;;;;;;;10.60;5.85;;;;;;;;;;5025295;28;20037;-52
2022/01/07 00:57:34;;;;;;;7.57;5.35;;;;;;;;;;5028047;28;20032;-47
2022/01/07 01:00:00;;;;;;;10.52;7.32;;;;;;;;;;5025729;28;20042;-48
2022/01/07 01:02:26;;;;;;;12.60;6.65;;;;;;;;;;5026576;28;20383;-51
2022/01/07 01:04:52;;;;;;;8.15;5.07;;;;;;;;;;5018839;28;20029;-51
2022/01/07 01:07:17;;;;;;;8.30;5.35;;;;;;;;;;5023980;28;20072;-47
2022/01/07 01:09:43;;;;;;;9.43;5.25;;;;;;;;;;5025913;28;20037;-49
2022/01/07 01:12:10;;;;;;;5.90;4.13;;;;;;;;;;5022635;28;20060;-47
2022/01/07 01:14:37;;;;;;;8.65;4.13;;;;;;;;;;5027623;28;20033;-53
2022/01/07 01:17:04;;;;;;;5.15;4.45;;;;;;;;;;5024598;28;20083;-46
2022/01/07 01:19:29;;;;;;;9.13;4.15;;;;;;;;;;5018174;28;20725;-50
2022/01/07 01:21:55;;;;;;;4.60;3.65;;;;;;;;;;5018185;28;20042;-52
2022/01/07 01:24:21;;;;;;;5.70;3.97;;;;;;;;;;5021099;28;20413;-48
2022/01/07 01:26:47;;;;;;;6.43;4.22;;;;;;;;;;5027710;28;20025;-46
2022/01/07 01:29:13;;;;;;;9.82;4.40;;;;;;;;;;5020736;28;20144;-53
2022/01/07 01:31:39;;;;;;;11.80;4.85;;;;;;;;;;5018223;28;20035;-53
2022/01/07 01:34:05;;;;;;;8.50;4.68;;;;;;;;;;5018025;28;20165;-49
2022/01/07 01:36:31;;;;;;;7.68;4.35;;;;;;;;;;5025462;28;20038;-47
2022/01/07 01:38:57;;;;;;;10.18;4.40;;;;;;;;;;5024586;28;20041;-47
2022/01/07 01:41:23;;;;;;;9.10;4.80;;;;;;;;;;5026419;28;20029;-48
2022/01/07 01:43:49;;;;;;;10.55;4.63;;;;;;;;;;5023862;28;20037;-52
2022/01/07 01:46:16;;;;;;;8.07;5.07;;;;;;;;;;5022251;28;20045;-49
2022/01/07 01:48:42;;;;;;;5.80;4.40;;;;;;;;;;5026952;28;20471;-54
2022/01/07 01:51:08;;;;;;;10.85;4.90;;;;;;;;;;5028359;28;20037;-48
2022/01/07 01:53:33;;;;;;;5.57;3.90;;;;;;;;;;5018758;28;20096;-48
2022/01/07 01:56:00;;;;;;;7.47;4.72;;;;;;;;;;5016855;28;20042;-47
2022/01/07 01:58:26;;;;;;;6.70;3.83;;;;;;;;;;5027273;28;20421;-47
2022/01/07 02:00:52;;;;;;;8.10;4.80;;;;;;;;;;5022522;28;20429;-48
2022/01/07 02:03:18;;;;;;;4.75;3.75;;;;;;;;;;5019085;28;20026;-54
2022/01/07 02:05:46;;;;;;;10.70;5.28;;;;;;;;;;5027141;28;20099;-53
2022/01/07 02:08:12;;;;;;;6.03;3.92;;;;;;;;;;5018447;28;20033;-50
2022/01/07 02:10:38;;;;;;;7.40;4.15;;;;;;;;;;5026484;28;20044;-50
2022/01/07 02:13:04;;;;;;;6.03;4.10;;;;;;;;;;5024407;28;20044;-47
2022/01/07 02:15:31;;;;;;;5.43;4.30;;;;;;;;;;5019274;28;20459;-50
2022/01/07 02:17:57;;;;;;;7.75;4.78;;;;;;;;;;5021031;28;20056;-52
2022/01/07 02:20:25;;;;;;;7.38;4.25;;;;;;;;;;5025472;28;20133;-50
2022/01/07 02:22:52;;;;;;;6.20;4.45;;;;;;;;;;5026411;28;20048;-48
2022/01/07 02:25:20;;;;;;;8.95;4.78;;;;;;;;;;5020877;28;20428;-47
2022/01/07 02:27:47;;;;;;;9.77;4.63;;;;;;;;;;5016557;28;20049;-48
2022/01/07 02:30:19;;;;;;;7.03;4.20;;;;;;;;;;5016932;28;20033;-50
2022/01/07 02:32:46;;;;;;;4.45;3.60;;;;;;;;;;5018421;28;20079;-47
2022/01/07 02:35:13;;;;;;;5.10;4.00;;;;;;;;;;5026242;28;20045;-53
2022/01/07 02:37:38;;;;;;;6.97;3.70;;;;;;;;;;5020560;28;20580;-49
2022/01/07 02:40:06;;;;;;;5.65;3.85;;;;;;;;;;5017257;28;20033;-50
2022/01/07 02:42:32;;;;;;;5.10;3.60;;;;;;;;;;5021227;28;20033;-49
2022/01/07 02:44:58;;;;;;;9.40;3.45;;;;;;;;;;5016786;28;20100;-48
2022/01/07 02:47:29;;;;;;;7.22;4.32;;;;;;;;;;5036013;28;20030;-49
2022/01/07 02:49:55;;;;;;;5.25;4.13;;;;;;;;;;5023478;28;20052;-48
2022/01/07 02:52:20;;;;;;;7.88;4.60;;;;;;;;;;5018242;28;20797;-52
2022/01/07 02:54:46;;;;;;;5.05;4.00;;;;;;;;;;5027676;28;20033;-49
2022/01/07 02:57:12;;;;;;;8.93;4.53;;;;;;;;;;5055325;28;20109;-52
2022/01/07 02:59:37;;;;;;;9.90;4.43;;;;;;;;;;5019780;28;20466;-51
2022/01/07 03:02:03;;;;;;;10.93;3.78;;;;;;;;;;5018790;28;20037;-53
2022/01/07 03:04:29;;;;;;;7.93;4.35;;;;;;;;;;5027086;28;20140;-51
2022/01/07 03:06:55;;;;;;;6.97;4.15;;;;;;;;;;5023260;28;20119;-51
2022/01/07 03:09:21;;;;;;;29.75;17.27;;;;;;;;;;5023441;28;20033;-49
2022/01/07 03:11:47;;;;;;;7.05;5.78;;;;;;;;;;5021389;28;20494;-48
2022/01/07 03:14:12;;;;;;;7.90;5.45;;;;;;;;;;5024342;28;20151;-51
2022/01/07 03:16:41;;;;;;;5.40;3.50;;;;;;;;;;5022967;28;20033;-54
2022/01/07 03:19:07;;;;;;;5.00;3.78;;;;;;;;;;5024442;28;20518;-53
2022/01/07 03:21:32;;;;;;;6.55;3.33;;;;;;;;;;5021174;28;20062;-53
2022/01/07 03:23:58;;;;;;;5.43;4.10;;;;;;;;;;5027723;28;20033;-51
2022/01/07 03:26:24;;;;;;;7.10;3.83;;;;;;;;;;5029259;28;20040;-49
2022/01/07 03:28:50;;;;;;;4.13;3.20;;;;;;;;;;5025398;28;20683;-49
2022/01/07 03:31:15;;;;;;;6.53;3.35;;;;;;;;;;5020014;28;20115;-54
2022/01/07 03:33:41;;;;;;;4.25;3.28;;;;;;;;;;5026146;28;20053;-55
2022/01/07 03:36:07;;;;;;;4.97;3.25;;;;;;;;;;5028530;28;20033;-53
2022/01/07 03:38:34;;;;;;;6.78;3.40;;;;;;;;;;5022974;28;20383;-49
2022/01/07 03:40:59;;;;;;;4.22;2.80;;;;;;;;;;5026466;28;20112;-52
2022/01/07 03:43:25;;;;;;;4.97;3.40;;;;;;;;;;5016150;28;20868;-50
2022/01/07 03:45:51;;;;;;;7.32;3.70;;;;;;;;;;5028558;28;20523;-54
2022/01/07 03:48:17;;;;;;;6.90;3.35;;;;;;;;;;5028302;28;20037;-54
2022/01/07 03:50:42;;;;;;;8.88;3.33;;;;;;;;;;5028682;28;20385;-52
2022/01/07 03:53:08;;;;;;;7.78;3.70;;;;;;;;;;5025933;28;20033;-55
2022/01/07 03:55:35;;;;;;;11.07;5.07;;;;;;;;;;5021531;28;20035;-55
2022/01/07 03:58:00;;;;;;;7.13;4.07;;;;;;;;;;5031173;28;20041;-51
2022/01/07 04:00:32;;;;;;;10.82;5.22;;;;;;;;;;5019935;28;20018;-49
2022/01/07 04:03:00;;;;;;;12.07;6.47;;;;;;;;;;5017892;28;20042;-51
2022/01/07 04:05:26;;;;;;;12.05;7.85;;;;;;;;;;5024727;28;20032;-54
2022/01/07 04:07:52;;;;;;;16.58;8.65;;;;;;;;;;5023650;28;20033;-54
2022/01/07 04:10:18;;;;;;;9.50;6.55;;;;;;;;;;5025736;28;20026;-54
2022/01/07 04:12:44;;;;;;;9.00;4.70;;;;;;;;;;5028426;28;20045;-53
2022/01/07 04:15:10;;;;;;;7.60;4.93;;;;;;;;;;5022805;28;20048;-53
2022/01/07 04:17:42;;;;;;;10.27;5.03;;;;;;;;;;5029521;28;20034;-54
2022/01/07 04:20:10;;;;;;;8.80;4.38;;;;;;;;;;5024162;28;20076;-55
2022/01/07 04:22:37;;;;;;;6.85;4.60;;;;;;;;;;5028434;28;20032;-52
2022/01/07 04:25:07;;;;;;;7.15;4.25;;;;;;;;;;5024844;28;20422;-53
2022/01/07 04:27:33;;;;;;;5.07;3.85;;;;;;;;;;5023677;28;20083;-53
2022/01/07 04:29:58;;;;;;;5.32;3.75;;;;;;;;;;5022323;28;20041;-53
2022/01/07 04:32:24;;;;;;;6.18;3.65;;;;;;;;;;5023507;28;20034;-55
2022/01/07 04:34:50;;;;;;;5.30;4.03;;;;;;;;;;5022793;28;20168;-54
2022/01/07 04:37:17;;;;;;;10.43;6.45;;;;;;;;;;5023161;28;20450;-53
2022/01/07 04:39:42;;;;;;;22.35;12.48;;;;;;;;;;5028784;28;20088;-53
2022/01/07 04:42:08;;;;;;;22.63;12.15;;;;;;;;;;5024125;28;20037;-55
2022/01/07 04:44:40;;;;;;;9.02;4.85;;;;;;;;;;5027358;28;20648;-51
2022/01/07 04:47:07;;;;;;;7.80;4.43;;;;;;;;;;5024299;28;20025;-52
2022/01/07 04:49:34;;;;;;;6.68;4.38;;;;;;;;;;5016467;28;20079;-49
2022/01/07 04:51:59;;;;;;;7.50;4.13;;;;;;;;;;5025123;28;20069;-50
2022/01/07 04:54:25;;;;;;;7.78;4.30;;;;;;;;;;5026018;28;20065;-47
2022/01/07 04:56:51;;;;;;;5.10;3.67;;;;;;;;;;5024380;28;20057;-47
2022/01/07 04:59:16;;;;;;;6.28;3.50;;;;;;;;;;5023152;28;20089;-46
2022/01/07 05:01:42;;;;;;;3.33;2.97;;;;;;;;;;5025625;28;20033;-47
2022/01/07 05:04:08;;;;;;;3.78;2.92;;;;;;;;;;5022452;28;20439;-47
2022/01/07 05:09:08;;;;;;;4.80;3.40;;;;;;;;;;5022874;28;20084;-49
2022/01/07 05:11:34;;;;;;;4.63;3.67;;;;;;;;;;5023208;28;20030;-46
2022/01/07 05:13:59;;;;;;;6.22;3.92;;;;;;;;;;5019741;28;20033;-46
2022/01/07 05:16:28;;;;;;;3.85;3.05;;;;;;;;;;5024459;28;20032;-47
2022/01/07 05:18:55;;;;;;;7.13;3.53;;;;;;;;;;5021245;28;20055;-46
2022/01/07 05:21:21;;;;;;;3.55;3.10;;;;;;;;;;5021243;28;20158;-48
2022/01/07 05:23:46;;;;;;;4.93;3.08;;;;;;;;;;5020837;28;20109;-48
2022/01/07 05:26:12;;;;;;;6.05;2.78;;;;;;;;;;5023122;28;20038;-47
2022/01/07 05:28:38;;;;;;;3.25;2.70;;;;;;;;;;5021463;28;20514;-47
2022/01/07 05:31:04;;;;;;;3.95;2.80;;;;;;;;;;5022491;28;20025;-48
2022/01/07 05:33:30;;;;;;;6.25;3.10;;;;;;;;;;5025384;28;20440;-46
2022/01/07 05:35:56;;;;;;;4.28;3.17;;;;;;;;;;5025760;28;20587;-46
2022/01/07 05:38:21;;;;;;;7.70;2.92;;;;;;;;;;5021225;28;20030;-51
2022/01/07 05:40:47;;;;;;;7.03;3.80;;;;;;;;;;5026395;28;20025;-46
2022/01/07 05:43:13;;;;;;;5.05;3.78;;;;;;;;;;5016567;28;20033;-47
2022/01/07 05:45:40;;;;;;;8.48;3.75;;;;;;;;;;5025886;28;20041;-47
2022/01/07 05:48:06;;;;;;;7.95;4.22;;;;;;;;;;5026324;28;20034;-46
2022/01/07 05:50:32;;;;;;;7.95;4.63;;;;;;;;;;5023536;28;20033;-47
2022/01/07 05:52:58;;;;;;;9.25;6.00;;;;;;;;;;5017953;28;20458;-50
2022/01/07 05:55:23;;;;;;;13.43;6.72;;;;;;;;;;5021879;28;20022;-47
2022/01/07 05:57:49;;;;;;;10.20;6.00;;;;;;;;;;5016739;28;20223;-49
2022/01/07 06:00:18;;;;;;;7.13;5.03;;;;;;;;;;5026521;28;20031;-49
2022/01/07 06:02:44;;;;;;;6.85;4.55;;;;;;;;;;5018767;28;20462;-47
2022/01/07 06:05:11;;;;;;;6.55;4.47;;;;;;;;;;5023421;28;20053;-48
2022/01/07 06:07:37;;;;;;;10.48;3.80;;;;;;;;;;5017722;28;20108;-46
2022/01/07 06:10:04;;;;;;;8.48;4.20;;;;;;;;;;5023848;28;20065;-49
2022/01/07 06:12:30;;;;;;;8.00;5.47;;;;;;;;;;5019522;28;20798;-47
2022/01/07 06:14:57;;;;;;;9.00;5.45;;;;;;;;;;5022037;28;20481;-47
2022/01/07 06:17:23;;;;;;;12.10;6.20;;;;;;;;;;5022274;28;20546;-48
2022/01/07 06:19:48;;;;;;;5.88;4.95;;;;;;;;;;5020326;28;20136;-48
2022/01/07 06:22:14;;;;;;;41.55;19.15;;;;;;;;;;5013894;28;20029;-47
2022/01/07 06:24:40;;;;;;;23.25;12.52;;;;;;;;;;5021552;28;20045;-47
2022/01/07 06:27:06;;;;;;;14.27;7.50;;;;;;;;;;5022709;28;20450;-49
2022/01/07 06:29:31;;;;;;;8.18;5.20;;;;;;;;;;5017669;28;20565;-50
2022/01/07 06:31:58;;;;;;;5.65;4.50;;;;;;;;;;5025115;28;20033;-49
2022/01/07 06:34:23;;;;;;;9.00;5.20;;;;;;;;;;5019185;28;20092;-47
2022/01/07 06:36:50;;;;;;;6.55;4.40;;;;;;;;;;5018898;28;20033;-47
2022/01/07 06:39:18;;;;;;;7.32;4.90;;;;;;;;;;5026451;28;20428;-47
2022/01/07 06:41:46;;;;;;;7.60;3.80;;;;;;;;;;5026479;28;20113;-47
2022/01/07 06:44:13;;;;;;;9.38;4.45;;;;;;;;;;5026081;28;20424;-48
2022/01/07 06:46:39;;;;;;;4.72;3.83;;;;;;;;;;5026008;28;20029;-47
2022/01/07 06:49:05;;;;;;;5.78;4.50;;;;;;;;;;5018805;28;20509;-48
2022/01/07 06:51:34;;;;;;;7.45;4.50;;;;;;;;;;5019929;28;20039;-47
2022/01/07 06:53:59;;;;;;;8.63;4.45;;;;;;;;;;5020801;28;20029;-47
2022/01/07 06:56:25;;;;;;;7.88;4.82;;;;;;;;;;5024120;28;20088;-46
2022/01/07 06:58:51;;;;;;;20.23;5.07;;;;;;;;;;5026702;28;20420;-49
2022/01/07 07:01:17;;;;;;;11.35;4.97;;;;;;;;;;5020610;28;20029;-46
2022/01/07 07:03:43;;;;;;;9.07;4.85;;;;;;;;;;5019689;28;20507;-47
2022/01/07 07:06:11;;;;;;;4.90;4.40;;;;;;;;;;5018074;28;20026;-49
2022/01/07 07:08:37;;;;;;;9.98;5.07;;;;;;;;;;5024378;28;20128;-48
2022/01/07 07:11:03;;;;;;;5.13;4.60;;;;;;;;;;5018709;28;20169;-49
2022/01/07 07:13:28;;;;;;;9.10;5.65;;;;;;;;;;5020310;28;20474;-50
2022/01/07 07:15:54;;;;;;;11.82;6.13;;;;;;;;;;5017846;28;20064;-50
2022/01/07 07:18:20;;;;;;;11.40;6.20;;;;;;;;;;5018824;28;20042;-49
2022/01/07 07:20:46;;;;;;;15.65;5.78;;;;;;;;;;5016214;28;20060;-46
2022/01/07 07:23:12;;;;;;;14.98;6.78;;;;;;;;;;5017850;28;20131;-51
2022/01/07 07:25:38;;;;;;;13.63;7.25;;;;;;;;;;5026467;28;20048;-49
2022/01/07 07:28:04;;;;;;;9.85;6.05;;;;;;;;;;5020706;28;20030;-49
2022/01/07 07:30:36;;;;;;;7.75;4.82;;;;;;;;;;5021190;28;20056;-47
2022/01/07 07:33:29;;;;;;;9.15;4.80;;;;;;;;;;5017751;28;20482;-49
2022/01/07 07:38:41;;;;;;;;;;;;;;;;;;5023883;28;20037;-50
2022/01/07 07:41:07;;;;;;;18.73;11.50;;;;;;;;;;5018533;28;19928;-47
2022/01/07 07:43:34;;;;;;;22.65;11.25;;;;;;;;;;5023279;28;20034;-47
2022/01/07 07:46:00;;;;;;;17.30;9.65;;;;;;;;;;5026817;28;20076;-52
2022/01/07 07:48:26;;;;;;;12.20;7.15;;;;;;;;;;5021772;28;20038;-46
2022/01/07 07:50:52;;;;;;;18.45;8.88;;;;;;;;;;5015347;28;20530;-46
2022/01/07 07:53:18;;;;;;;13.32;8.77;;;;;;;;;;5014585;28;20128;-51
2022/01/07 07:55:48;;;;;;;20.02;9.88;;;;;;;;;;5018266;28;20053;-51
2022/01/07 07:58:14;;;;;;;18.17;9.73;;;;;;;;;;5015304;28;20036;-52
2022/01/07 08:00:40;;;;;;;32.80;20.63;;;;;;;;;;5025098;28;20737;-52
2022/01/07 08:03:06;;;;;;;38.63;21.70;;;;;;;;;;5027191;28;20041;-47
2022/01/07 08:05:32;;;;;;;23.92;13.85;;;;;;;;;;5025144;28;20030;-47
2022/01/07 08:08:02;;;;;;;19.77;11.18;;;;;;;;;;5025722;28;20521;-48
2022/01/07 08:10:29;;;;;;;14.23;9.57;;;;;;;;;;5021703;28;20036;-50
2022/01/07 08:18:23;;;;;;;15.48;9.57;;;;;;;;;;5025370;28;20087;-48
2022/01/07 08:20:53;;;;;;;18.73;9.57;;;;;;;;;;5025539;28;20053;-47
2022/01/07 08:23:20;;;;;;;15.57;9.13;;;;;;;;;;5026446;28;20033;-49
2022/01/07 08:25:46;;;;;;;9.18;6.70;;;;;;;;;;5027612;28;20033;-51
2022/01/07 08:28:14;;;;;;;10.23;7.05;;;;;;;;;;5022430;28;20441;-49
2022/01/07 08:36:14;;;;;;;14.98;8.77;;;;;;;;;;5023523;28;20096;-50
2022/01/07 08:38:39;;;;;;;21.27;9.73;;;;;;;;;;5020272;28;20042;-46
2022/01/07 08:41:05;;;;;;;19.08;9.07;;;;;;;;;;5026745;28;20110;-46
2022/01/07 08:43:31;;;;;;;12.55;7.88;;;;;;;;;;5020436;28;20091;-47
2022/01/07 08:45:57;;;;;;;9.38;7.20;;;;;;;;;;5024953;28;20033;-47
2022/01/07 08:48:25;;;;;;;11.82;8.70;;;;;;;;;;5027524;28;20033;-47
2022/01/07 08:50:51;;;;;;;17.27;7.55;;;;;;;;;;5024624;28;20429;-46
2022/01/07 08:53:16;;;;;;;16.55;8.32;;;;;;;;;;5025553;28;20117;-47
2022/01/07 08:55:42;;;;;;;14.10;7.40;;;;;;;;;;5026128;28;20033;-48
2022/01/07 08:58:08;;;;;;;12.95;7.15;;;;;;;;;;5019656;28;20390;-49
2022/01/07 09:00:33;;;;;;;14.32;7.78;;;;;;;;;;5022266;28;20112;-48
2022/01/07 09:03:00;;;;;;;16.52;8.10;;;;;;;;;;5027314;28;20053;-49
2022/01/07 09:05:26;;;;;;;16.92;8.48;;;;;;;;;;5027373;28;20083;-47
2022/01/07 09:07:52;;;;;;;11.85;7.07;;;;;;;;;;5025548;28;20124;-47
2022/01/07 09:10:18;;;;;;;15.38;7.40;;;;;;;;;;5024017;28;20120;-50
2022/01/07 09:12:45;;;;;;;13.23;6.90;;;;;;;;;;5024037;28;20082;-46
2022/01/07 09:15:12;;;;;;;11.77;8.00;;;;;;;;;;5022068;28;20075;-46
2022/01/07 09:17:38;;;;;;;13.63;7.50;;;;;;;;;;5024802;28;20109;-49
2022/01/07 09:20:06;;;;;;;13.70;7.03;;;;;;;;;;5024075;28;20542;-47
2022/01/07 09:22:32;;;;;;;10.25;6.97;;;;;;;;;;5026972;28;20029;-49
2022/01/07 09:24:58;;;;;;;9.10;6.03;;;;;;;;;;5029426;28;20037;-47
2022/01/07 09:27:24;;;;;;;8.93;6.13;;;;;;;;;;5027922;28;20021;-48
2022/01/07 09:29:50;;;;;;;7.97;5.57;;;;;;;;;;5025485;28;20088;-48
2022/01/07 09:32:16;;;;;;;11.15;6.03;;;;;;;;;;5022032;28;20033;-47
2022/01/07 09:34:42;;;;;;;8.95;5.60;;;;;;;;;;5022934;28;20026;-49
2022/01/07 09:37:07;;;;;;;9.55;5.80;;;;;;;;;;5023789;28;20041;-46
2022/01/07 09:39:34;;;;;;;10.55;5.47;;;;;;;;;;5024312;28;20032;-47
2022/01/07 09:42:00;;;;;;;7.28;4.78;;;;;;;;;;5017753;28;20479;-51
2022/01/07 09:44:28;;;;;;;7.45;4.40;;;;;;;;;;5020486;28;20486;-48
2022/01/07 09:46:54;;;;;;;10.10;4.93;;;;;;;;;;5019159;28;20091;-50
2022/01/07 09:49:20;;;;;;;7.93;4.38;;;;;;;;;;5027854;28;20038;-48
2022/01/07 09:51:46;;;;;;;9.20;4.63;;;;;;;;;;5022063;28;20108;-49
2022/01/07 09:54:12;;;;;;;8.77;5.18;;;;;;;;;;5020304;28;20044;-48
2022/01/07 09:56:38;;;;;;;7.95;5.07;;;;;;;;;;5018678;28;20025;-52
2022/01/07 09:59:05;;;;;;;8.48;4.35;;;;;;;;;;5015546;28;20470;-52
2022/01/07 10:02:04;;;;;;;12.73;4.25;;;;;;;;;;5020572;28;20033;-49
2022/01/07 10:04:33;;;;;;;10.63;5.10;;;;;;;;;;5024849;28;20026;-48
2022/01/07 10:07:13;;;;;;;8.43;4.50;;;;;;;;;;5025035;28;20060;-49
2022/01/07 10:09:41;;;;;;;11.00;4.70;;;;;;;;;;5019344;28;20036;-50
2022/01/07 10:12:08;;;;;;;7.38;4.90;;;;;;;;;;5020050;28;20076;-47
2022/01/07 10:14:36;;;;;;;7.63;5.25;;;;;;;;;;5019183;28;20065;-51
2022/01/07 10:17:03;;;;;;;8.45;5.38;;;;;;;;;;5021574;28;20071;-50
2022/01/07 10:19:36;;;;;;;14.05;5.85;;;;;;;;;;5017459;28;20049;-50
2022/01/07 10:22:06;;;;;;;;;;;;;;;;;;5017507;28;20038;-54
2022/01/07 10:25:01;;;;;;;11.15;5.72;;;;;;;;;;5020039;28;19921;-50
2022/01/07 10:27:36;;;;;;;13.20;6.00;;;;;;;;;;5021595;28;20533;-54
2022/01/07 10:30:19;;;;;;;16.45;7.65;;;;;;;;;;5016386;28;20061;-54
2022/01/07 10:32:45;;;;;;;14.50;8.45;;;;;;;;;;5022507;28;20040;-52
2022/01/07 10:35:11;;;;;;;11.60;6.60;;;;;;;;;;5021207;28;20040;-47
2022/01/07 10:37:49;;;;;;;8.93;4.78;;;;;;;;;;5022547;28;20030;-47
2022/01/07 10:40:28;;;;;;;9.10;4.90;;;;;;;;;;5023633;28;20037;-47
2022/01/07 10:43:06;;;;;;;7.07;4.63;;;;;;;;;;5016672;28;20036;-52
2022/01/07 10:45:32;;;;;;;7.78;4.88;;;;;;;;;;5020841;28;20028;-52
2022/01/07 10:47:58;;;;;;;8.32;3.90;;;;;;;;;;5018194;28;20037;-52
2022/01/07 10:50:24;;;;;;;6.15;3.30;;;;;;;;;;5019179;28;20034;-52
2022/01/07 10:52:51;;;;;;;8.18;5.25;;;;;;;;;;5016920;28;20540;-47
2022/01/07 10:55:21;;;;;;;5.10;3.90;;;;;;;;;;5017371;28;20065;-47
2022/01/07 10:57:49;;;;;;;12.55;6.90;;;;;;;;;;5020456;28;20121;-48
2022/01/07 11:00:17;;;;;;;8.70;5.22;;;;;;;;;;5016009;28;20021;-51
2022/01/07 11:02:44;;;;;;;5.63;3.72;;;;;;;;;;5020474;28;20037;-49
2022/01/07 11:05:10;;;;;;;6.38;4.25;;;;;;;;;;5020169;28;20033;-53
2022/01/07 11:07:37;;;;;;;4.38;3.72;;;;;;;;;;5019355;28;20112;-47
2022/01/07 11:10:08;;;;;;;10.65;4.10;;;;;;;;;;5019339;28;20033;-55
2022/01/07 11:12:35;;;;;;;7.63;3.78;;;;;;;;;;5018322;28;20112;-54
2022/01/07 11:15:03;;;;;;;4.85;3.53;;;;;;;;;;5018256;28;20134;-51
2022/01/07 11:17:30;;;;;;;7.72;3.70;;;;;;;;;;5017095;28;20120;-50
2022/01/07 11:20:01;;;;;;;4.38;3.05;;;;;;;;;;5018672;28;20045;-53
2022/01/07 11:22:29;;;;;;;4.45;3.00;;;;;;;;;;5018441;28;20466;-47
2022/01/07 11:24:59;;;;;;;4.65;2.90;;;;;;;;;;5022113;28;20034;-55
2022/01/07 11:27:27;;;;;;;5.50;4.43;;;;;;;;;;5022492;28;20399;-48
2022/01/07 11:29:59;;;;;;;6.65;3.53;;;;;;;;;;5018036;28;20037;-52
2022/01/07 11:32:25;;;;;;;6.57;4.18;;;;;;;;;;5014615;28;20044;-49
2022/01/07 11:34:54;;;;;;;8.23;4.45;;;;;;;;;;5019712;28;20026;-50
2022/01/07 11:37:40;;;;;;;7.40;5.18;;;;;;;;;;5023591;28;20037;-52
2022/01/07 11:40:07;;;;;;;6.00;4.95;;;;;;;;;;5023305;28;20037;-50
2022/01/07 11:42:41;;;;;;;8.63;4.43;;;;;;;;;;5024127;28;20666;-51
2022/01/07 11:45:27;;;;;;;5.10;4.18;;;;;;;;;;5023228;28;20795;-52
2022/01/07 11:47:54;;;;;;;8.32;5.65;;;;;;;;;;5022652;28;20037;-52
2022/01/07 11:50:20;;;;;;;8.20;4.88;;;;;;;;;;5019641;28;20025;-55
2022/01/07 11:53:05;;;;;;;8.55;5.85;;;;;;;;;;5026694;28;20462;-50
2022/01/07 11:55:33;;;;;;;6.10;5.00;;;;;;;;;;5024154;28;20036;-52
2022/01/07 11:58:03;;;;;;;6.70;4.97;;;;;;;;;;5023052;28;20048;-55
2022/01/07 12:00:56;;;;;;;9.18;5.15;;;;;;;;;;5024127;28;20120;-52
2022/01/07 12:03:49;;;;;;;6.25;4.65;;;;;;;;;;5025384;28;20029;-49
2022/01/07 12:06:17;;;;;;;7.65;4.72;;;;;;;;;;5026201;28;20037;-50
2022/01/07 12:11:59;;;;;;;13.63;5.97;;;;;;;;;;5023143;28;20038;-47
2022/01/07 12:14:58;;;;;;;8.10;4.93;;;;;;;;;;5022730;28;20053;-50
2022/01/07 12:17:25;;;;;;;8.20;4.82;;;;;;;;;;5022889;28;22924;-54
2022/01/07 12:19:51;;;;;;;10.63;5.28;;;;;;;;;;5023935;28;20137;-50
2022/01/07 12:22:17;;;;;;;9.27;5.38;;;;;;;;;;5025251;28;20032;-51
2022/01/07 12:24:44;;;;;;;7.55;5.38;;;;;;;;;;5024285;28;20087;-49
2022/01/07 12:27:20;;;;;;;10.23;5.38;;;;;;;;;;5017428;28;20033;-51
2022/01/07 12:29:51;;;;;;;9.13;5.15;;;;;;;;;;5023523;28;20017;-50
2022/01/07 12:32:19;;;;;;;8.13;4.68;;;;;;;;;;5019628;28;20062;-53
2022/01/07 12:34:48;;;;;;;9.45;5.05;;;;;;;;;;5026916;28;20522;-50
2022/01/07 12:37:23;;;;;;;10.63;4.70;;;;;;;;;;5020681;28;20743;-54
2022/01/07 12:40:01;;;;;;;7.13;4.85;;;;;;;;;;5018323;28;20045;-52
2022/01/07 12:42:29;;;;;;;15.02;4.82;;;;;;;;;;5015971;28;20046;-52
2022/01/07 12:44:57;;;;;;;8.85;4.38;;;;;;;;;;5052851;28;20045;-53
2022/01/07 12:47:29;;;;;;;12.73;4.78;;;;;;;;;;5020143;28;20052;-53
2022/01/07 12:50:01;;;;;;;6.37;4.73;;;;;;;;;;5023431;28;20490;-52
2022/01/07 12:52:32;;;;;;;9.35;4.78;;;;;;;;;;5017641;28;20038;-54
2022/01/07 12:55:18;;;;;;;6.72;4.80;;;;;;;;;;5023854;28;20033;-55
2022/01/07 12:57:52;;;;;;;8.07;4.22;;;;;;;;;;5022232;28;20085;-56
2022/01/07 13:00:30;;;;;;;6.03;3.92;;;;;;;;;;5024669;28;20033;-54
2022/01/07 13:03:02;;;;;;;6.38;3.92;;;;;;;;;;5027860;28;20033;-54
2022/01/07 13:05:30;;;;;;;4.88;3.22;;;;;;;;;;5023154;28;20518;-53
2022/01/07 13:08:00;;;;;;;5.07;3.15;;;;;;;;;;5022607;28;20026;-54
2022/01/07 13:10:32;;;;;;;4.00;2.92;;;;;;;;;;5020418;28;20083;-55
2022/01/07 13:12:57;;;;;;;4.30;2.17;;;;;;;;;;5022789;28;20025;-54
2022/01/07 13:15:45;;;;;;;3.78;2.97;;;;;;;;;;5024932;28;20036;-50
2022/01/07 13:18:39;;;;;;;2.13;1.90;;;;;;;;;;5021379;28;20495;-47
2022/01/07 13:21:05;;;;;;;3.65;1.75;;;;;;;;;;5021189;28;20399;-49
2022/01/07 13:23:37;;;;;;;4.72;1.80;;;;;;;;;;5021009;28;20044;-46
2022/01/07 13:26:04;;;;;;;3.78;2.05;;;;;;;;;;5025267;28;20167;-50
2022/01/07 13:28:34;;;;;;;7.25;2.47;;;;;;;;;;5025560;28;20037;-49
2022/01/07 13:31:00;;;;;;;4.65;2.92;;;;;;;;;;5025239;28;20029;-47
2022/01/07 13:33:28;;;;;;;4.43;2.72;;;;;;;;;;5019475;28;20030;-50
2022/01/07 13:35:56;;;;;;;4.45;2.17;;;;;;;;;;5018151;28;20026;-48
2022/01/07 13:38:22;;;;;;;4.38;2.40;;;;;;;;;;5021004;28;20018;-48
2022/01/07 13:40:49;;;;;;;4.00;2.10;;;;;;;;;;5023128;28;20036;-49
2022/01/07 13:43:16;;;;;;;4.85;2.42;;;;;;;;;;5023816;28;20033;-48
2022/01/07 13:45:43;;;;;;;2.53;2.30;;;;;;;;;;5020385;28;20025;-48
2022/01/07 13:48:12;;;;;;;5.70;2.30;;;;;;;;;;5019951;28;20479;-47
2022/01/07 13:50:41;;;;;;;9.30;7.13;;;;;;;;;;5022400;28;20139;-48
2022/01/07 13:53:13;;;;;;;3.30;2.25;;;;;;;;;;5020979;28;20116;-51
2022/01/07 13:55:39;;;;;;;6.15;2.70;;;;;;;;;;5019483;28;20124;-52
2022/01/07 13:58:08;;;;;;;4.35;2.50;;;;;;;;;;5023537;28;20132;-48
2022/01/07 14:00:35;;;;;;;6.30;2.60;;;;;;;;;;5022490;28;20037;-47
2022/01/07 14:03:01;;;;;;;2.50;2.30;;;;;;;;;;5019547;28;20026;-50
2022/01/07 14:05:27;;;;;;;4.20;3.10;;;;;;;;;;5015197;28;20049;-51
2022/01/07 14:07:53;;;;;;;6.43;3.95;;;;;;;;;;5020257;28;20056;-47
2022/01/07 14:10:25;;;;;;;4.18;2.28;;;;;;;;;;5018409;28;20039;-47
2022/01/07 14:13:29;;;;;;;6.25;2.80;;;;;;;;;;5028603;28;20033;-51
2022/01/07 14:15:55;;;;;;;3.55;2.20;;;;;;;;;;5032949;28;20265;-49
2022/01/07 14:18:25;;;;;;;2.88;2.05;;;;;;;;;;5023552;28;20053;-49
2022/01/07 14:21:00;;;;;;;5.53;3.30;;;;;;;;;;5041878;28;20053;-47
2022/01/07 14:23:31;;;;;;;5.22;2.75;;;;;;;;;;5038837;28;20037;-47
2022/01/07 14:26:11;;;;;;;5.28;3.30;;;;;;;;;;5038018;28;20512;-47
2022/01/07 14:28:40;;;;;;;5.43;2.92;;;;;;;;;;5041675;28;20059;-48
2022/01/07 14:31:07;;;;;;;4.10;2.70;;;;;;;;;;5035421;28;20099;-47
2022/01/07 14:33:34;;;;;;;5.43;2.70;;;;;;;;;;5019060;28;20571;-52
2022/01/07 14:36:00;;;;;;;6.68;3.75;;;;;;;;;;5033678;28;20128;-47
2022/01/07 14:38:27;;;;;;;4.53;2.28;;;;;;;;;;5031791;28;20470;-49
2022/01/07 14:40:52;;;;;;;3.85;2.72;;;;;;;;;;5034957;28;20071;-51
2022/01/07 14:43:19;;;;;;;4.05;2.63;;;;;;;;;;5034576;28;20029;-49
2022/01/07 14:45:47;;;;;;;3.17;2.40;;;;;;;;;;5034806;28;20045;-46
2022/01/07 14:48:13;;;;;;;3.67;2.08;;;;;;;;;;5024745;28;20040;-48
2022/01/07 14:50:39;;;;;;;4.43;2.25;;;;;;;;;;5032537;28;20037;-47
2022/01/07 14:53:04;;;;;;;3.83;2.10;;;;;;;;;;5019197;28;20041;-46
2022/01/07 14:55:34;;;;;;;2.00;1.75;;;;;;;;;;5014734;28;20044;-46
2022/01/07 14:58:03;;;;;;;6.55;1.92;;;;;;;;;;5019122;28;20037;-46
2022/01/07 15:00:30;;;;;;;5.28;3.00;;;;;;;;;;5026713;28;20030;-47
2022/01/07 15:02:55;;;;;;;2.78;2.40;;;;;;;;;;5049454;28;20034;-47
2022/01/07 15:05:22;;;;;;;6.93;3.20;;;;;;;;;;5023948;28;20080;-46